sensor_id;sensor_type;location;lat;lon;timestamp;P1;durP1;ratioP1;P2;durP2;ratioP2
9667;SDS011;4872;48.316;10.650;2022-10-26T04:13:07;6.00;;;3.83;;
9667;SDS011;4872;48.316;10.650;2022-10-26T04:15:35;4.13;;;3.50;;
9667;SDS011;4872;48.316;10.650;2022-10-26T04:18:02;6.07;;;3.90;;
9667;SDS011;4872;48.316;10.650;2022-10-26T04:20:29;5.17;;;3.90;;
9667;SDS011;4872;48.316;10.650;2022-10-26T04:22:58;6.83;;;3.67;;
9667;SDS011;4872;48.316;10.650;2022-10-26T04:25:26;5.80;;;3.83;;
9667;SDS011;4872;48.316;10.650;2022-10-26T04:27:53;7.93;;;5.60;;
9667;SDS011;4872;48.316;10.650;2022-10-26T04:30:21;8.60;;;4.73;;
9667;SDS011;4872;48.316;10.650;2022-10-26T04:32:49;6.60;;;4.37;;
9667;SDS011;4872;48.316;10.650;2022-10-26T04:35:16;7.13;;;5.57;;
9667;SDS011;4872;48.316;10.650;2022-10-26T04:37:43;9.40;;;6.97;;
9667;SDS011;4872;48.316;10.650;2022-10-26T04:40:10;8.37;;;6.43;;
9667;SDS011;4872;48.316;10.650;2022-10-26T04:42:40;9.80;;;5.60;;
9667;SDS011;4872;48.316;10.650;2022-10-26T04:45:08;6.83;;;4.53;;
9667;SDS011;4872;48.316;10.650;2022-10-26T04:47:37;5.70;;;3.90;;
9667;SDS011;4872;48.316;10.650;2022-10-26T04:50:04;7.87;;;4.30;;
9667;SDS011;4872;48.316;10.650;2022-10-26T04:52:32;5.17;;;4.13;;
9667;SDS011;4872;48.316;10.650;2022-10-26T04:54:59;4.33;;;3.80;;
9667;SDS011;4872;48.316;10.650;2022-10-26T04:57:26;5.63;;;3.77;;
9667;SDS011;4872;48.316;10.650;2022-10-26T04:59:52;6.40;;;4.03;;
9667;SDS011;4872;48.316;10.650;2022-10-26T05:02:19;4.70;;;4.20;;
9667;SDS011;4872;48.316;10.650;2022-10-26T05:04:48;4.73;;;3.80;;
9667;SDS011;4872;48.316;10.650;2022-10-26T05:07:14;5.70;;;4.07;;
9667;SDS011;4872;48.316;10.650;2022-10-26T05:09:41;6.47;;;3.80;;
9667;SDS011;4872;48.316;10.650;2022-10-26T05:12:08;4.83;;;4.33;;
9667;SDS011;4872;48.316;10.650;2022-10-26T05:14:34;4.07;;;3.53;;
9667;SDS011;4872;48.316;10.650;2022-10-26T05:17:01;6.70;;;4.10;;
9667;SDS011;4872;48.316;10.650;2022-10-26T05:19:28;8.17;;;4.67;;
9667;SDS011;4872;48.316;10.650;2022-10-26T05:21:56;5.23;;;4.10;;
9667;SDS011;4872;48.316;10.650;2022-10-26T05:24:23;4.77;;;4.10;;
9667;SDS011;4872;48.316;10.650;2022-10-26T05:26:50;5.70;;;4.03;;
9667;SDS011;4872;48.316;10.650;2022-10-26T05:29:17;5.93;;;4.10;;
9667;SDS011;4872;48.316;10.650;2022-10-26T05:31:43;4.53;;;3.57;;
9667;SDS011;4872;48.316;10.650;2022-10-26T05:34:10;6.20;;;5.03;;
9667;SDS011;4872;48.316;10.650;2022-10-26T05:36:37;7.77;;;5.67;;
9667;SDS011;4872;48.316;10.650;2022-10-26T05:39:05;9.83;;;5.20;;
9667;SDS011;4872;48.316;10.650;2022-10-26T05:41:32;6.63;;;5.77;;
9667;SDS011;4872;48.316;10.650;2022-10-26T05:43:59;7.47;;;4.17;;
9667;SDS011;4872;48.316;10.650;2022-10-26T05:46:25;7.03;;;3.80;;
9667;SDS011;4872;48.316;10.650;2022-10-26T05:48:52;4.93;;;3.50;;
9667;SDS011;4872;48.316;10.650;2022-10-26T05:51:19;17.57;;;9.53;;
9667;SDS011;4872;48.316;10.650;2022-10-26T05:53:46;11.70;;;6.13;;
9667;SDS011;4872;48.316;10.650;2022-10-26T05:56:15;4.93;;;2.50;;
9667;SDS011;4872;48.316;10.650;2022-10-26T05:58:45;2.30;;;1.80;;
9667;SDS011;4872;48.316;10.650;2022-10-26T06:01:14;2.93;;;2.33;;
9667;SDS011;4872;48.316;10.650;2022-10-26T06:03:53;4.53;;;3.10;;
9667;SDS011;4872;48.316;10.650;2022-10-26T06:06:36;5.50;;;3.17;;
9667;SDS011;4872;48.316;10.650;2022-10-26T06:09:08;5.57;;;4.37;;
9667;SDS011;4872;48.316;10.650;2022-10-26T06:11:37;13.10;;;7.67;;
9667;SDS011;4872;48.316;10.650;2022-10-26T06:14:04;12.93;;;11.13;;
9667;SDS011;4872;48.316;10.650;2022-10-26T06:16:34;14.03;;;10.10;;
9667;SDS011;4872;48.316;10.650;2022-10-26T06:19:11;20.07;;;16.60;;
9667;SDS011;4872;48.316;10.650;2022-10-26T06:21:50;16.63;;;13.30;;
9667;SDS011;4872;48.316;10.650;2022-10-26T06:24:26;18.47;;;10.97;;
9667;SDS011;4872;48.316;10.650;2022-10-26T06:27:03;17.67;;;12.03;;
9667;SDS011;4872;48.316;10.650;2022-10-26T06:29:41;8.57;;;6.73;;
9667;SDS011;4872;48.316;10.650;2022-10-26T06:32:14;10.77;;;5.70;;
9667;SDS011;4872;48.316;10.650;2022-10-26T06:34:42;6.67;;;4.97;;
9667;SDS011;4872;48.316;10.650;2022-10-26T06:37:12;6.27;;;4.63;;
9667;SDS011;4872;48.316;10.650;2022-10-26T06:39:41;7.00;;;5.50;;
9667;SDS011;4872;48.316;10.650;2022-10-26T06:42:12;9.73;;;5.57;;
9667;SDS011;4872;48.316;10.650;2022-10-26T06:44:40;7.83;;;4.93;;
9667;SDS011;4872;48.316;10.650;2022-10-26T06:47:09;11.53;;;5.70;;
9667;SDS011;4872;48.316;10.650;2022-10-26T06:49:41;8.73;;;5.37;;
9667;SDS011;4872;48.316;10.650;2022-10-26T06:52:17;15.50;;;10.60;;
9667;SDS011;4872;48.316;10.650;2022-10-26T06:54:51;17.80;;;12.73;;
9667;SDS011;4872;48.316;10.650;2022-10-26T06:57:22;15.50;;;10.50;;
9667;SDS011;4872;48.316;10.650;2022-10-26T06:59:50;20.83;;;15.37;;
9667;SDS011;4872;48.316;10.650;2022-10-26T07:02:19;23.37;;;18.00;;
9667;SDS011;4872;48.316;10.650;2022-10-26T07:04:47;19.57;;;14.07;;
9667;SDS011;4872;48.316;10.650;2022-10-26T07:07:14;17.27;;;12.73;;
9667;SDS011;4872;48.316;10.650;2022-10-26T07:09:44;14.73;;;10.97;;
9667;SDS011;4872;48.316;10.650;2022-10-26T07:12:11;11.07;;;7.80;;
9667;SDS011;4872;48.316;10.650;2022-10-26T07:14:39;7.47;;;5.70;;
9667;SDS011;4872;48.316;10.650;2022-10-26T07:17:06;6.17;;;4.60;;
9667;SDS011;4872;48.316;10.650;2022-10-26T07:19:34;4.90;;;3.63;;
9667;SDS011;4872;48.316;10.650;2022-10-26T07:22:01;3.83;;;3.10;;
9667;SDS011;4872;48.316;10.650;2022-10-26T07:24:28;4.33;;;3.03;;
9667;SDS011;4872;48.316;10.650;2022-10-26T07:26:56;3.77;;;3.37;;
9667;SDS011;4872;48.316;10.650;2022-10-26T07:29:24;4.73;;;3.13;;
9667;SDS011;4872;48.316;10.650;2022-10-26T07:31:53;7.23;;;3.30;;
9667;SDS011;4872;48.316;10.650;2022-10-26T07:34:20;4.97;;;3.23;;
9667;SDS011;4872;48.316;10.650;2022-10-26T07:36:46;4.83;;;3.07;;
9667;SDS011;4872;48.316;10.650;2022-10-26T07:39:15;6.20;;;3.73;;
9667;SDS011;4872;48.316;10.650;2022-10-26T07:41:42;5.70;;;3.47;;
9667;SDS011;4872;48.316;10.650;2022-10-26T07:44:10;4.67;;;3.53;;
9667;SDS011;4872;48.316;10.650;2022-10-26T07:46:37;5.80;;;3.40;;
9667;SDS011;4872;48.316;10.650;2022-10-26T07:49:05;4.60;;;3.57;;
9667;SDS011;4872;48.316;10.650;2022-10-26T07:51:32;7.47;;;4.47;;
9667;SDS011;4872;48.316;10.650;2022-10-26T07:53:58;5.13;;;3.50;;
9667;SDS011;4872;48.316;10.650;2022-10-26T07:56:25;4.40;;;3.30;;
9667;SDS011;4872;48.316;10.650;2022-10-26T07:58:52;3.97;;;3.00;;
9667;SDS011;4872;48.316;10.650;2022-10-26T08:01:20;4.40;;;3.40;;
9667;SDS011;4872;48.316;10.650;2022-10-26T08:03:47;4.03;;;2.83;;
9667;SDS011;4872;48.316;10.650;2022-10-26T08:06:18;3.67;;;3.00;;
9667;SDS011;4872;48.316;10.650;2022-10-26T08:08:45;4.30;;;3.27;;
9667;SDS011;4872;48.316;10.650;2022-10-26T08:11:12;4.40;;;3.70;;
9667;SDS011;4872;48.316;10.650;2022-10-26T08:13:39;5.13;;;3.97;;
9667;SDS011;4872;48.316;10.650;2022-10-26T08:16:06;5.67;;;4.00;;
9667;SDS011;4872;48.316;10.650;2022-10-26T08:18:34;3.90;;;3.30;;
9667;SDS011;4872;48.316;10.650;2022-10-26T08:21:01;4.40;;;3.40;;
9667;SDS011;4872;48.316;10.650;2022-10-26T08:23:29;3.63;;;3.07;;
9667;SDS011;4872;48.316;10.650;2022-10-26T08:25:57;3.30;;;2.83;;
9667;SDS011;4872;48.316;10.650;2022-10-26T08:28:24;5.00;;;2.80;;
9667;SDS011;4872;48.316;10.650;2022-10-26T08:30:51;4.03;;;3.17;;
9667;SDS011;4872;48.316;10.650;2022-10-26T08:33:18;4.30;;;3.30;;
9667;SDS011;4872;48.316;10.650;2022-10-26T08:35:45;4.60;;;3.20;;
9667;SDS011;4872;48.316;10.650;2022-10-26T08:38:12;3.60;;;3.20;;
9667;SDS011;4872;48.316;10.650;2022-10-26T08:40:40;5.17;;;3.20;;
9667;SDS011;4872;48.316;10.650;2022-10-26T08:43:10;3.43;;;3.10;;
9667;SDS011;4872;48.316;10.650;2022-10-26T08:45:43;3.93;;;3.50;;
9667;SDS011;4872;48.316;10.650;2022-10-26T08:48:14;3.27;;;2.97;;
9667;SDS011;4872;48.316;10.650;2022-10-26T08:50:44;10.00;;;2.93;;
9667;SDS011;4872;48.316;10.650;2022-10-26T08:53:16;2.90;;;2.70;;
9667;SDS011;4872;48.316;10.650;2022-10-26T08:55:49;2.60;;;2.37;;
9667;SDS011;4872;48.316;10.650;2022-10-26T08:58:20;4.43;;;2.27;;
9667;SDS011;4872;48.316;10.650;2022-10-26T09:00:52;3.10;;;2.53;;
9667;SDS011;4872;48.316;10.650;2022-10-26T09:03:19;5.37;;;2.70;;
9667;SDS011;4872;48.316;10.650;2022-10-26T09:05:49;4.47;;;2.50;;
9667;SDS011;4872;48.316;10.650;2022-10-26T09:08:31;5.13;;;2.90;;
9667;SDS011;4872;48.316;10.650;2022-10-26T09:11:10;2.93;;;2.30;;
9667;SDS011;4872;48.316;10.650;2022-10-26T09:13:49;3.57;;;2.20;;
9667;SDS011;4872;48.316;10.650;2022-10-26T09:16:26;4.57;;;3.03;;
9667;SDS011;4872;48.316;10.650;2022-10-26T09:19:00;4.53;;;2.70;;
9667;SDS011;4872;48.316;10.650;2022-10-26T09:21:39;4.33;;;2.70;;
9667;SDS011;4872;48.316;10.650;2022-10-26T09:24:12;3.60;;;2.17;;
9667;SDS011;4872;48.316;10.650;2022-10-26T09:26:44;4.60;;;3.07;;
9667;SDS011;4872;48.316;10.650;2022-10-26T09:29:19;4.33;;;2.80;;
9667;SDS011;4872;48.316;10.650;2022-10-26T09:31:51;3.20;;;2.40;;
9667;SDS011;4872;48.316;10.650;2022-10-26T09:34:23;8.10;;;2.80;;
9667;SDS011;4872;48.316;10.650;2022-10-26T09:36:54;5.50;;;2.57;;
9667;SDS011;4872;48.316;10.650;2022-10-26T09:39:23;3.77;;;2.50;;
9667;SDS011;4872;48.316;10.650;2022-10-26T09:41:57;4.10;;;2.67;;
9667;SDS011;4872;48.316;10.650;2022-10-26T09:44:29;5.57;;;2.80;;
9667;SDS011;4872;48.316;10.650;2022-10-26T09:47:00;3.47;;;2.73;;
9667;SDS011;4872;48.316;10.650;2022-10-26T09:49:33;3.60;;;2.50;;
9667;SDS011;4872;48.316;10.650;2022-10-26T09:52:06;5.67;;;2.50;;
9667;SDS011;4872;48.316;10.650;2022-10-26T09:54:33;2.37;;;2.17;;
9667;SDS011;4872;48.316;10.650;2022-10-26T09:57:01;3.67;;;2.60;;
9667;SDS011;4872;48.316;10.650;2022-10-26T09:59:31;4.20;;;2.50;;
9667;SDS011;4872;48.316;10.650;2022-10-26T10:02:04;5.63;;;2.53;;
9667;SDS011;4872;48.316;10.650;2022-10-26T10:04:58;4.20;;;2.33;;
9667;SDS011;4872;48.316;10.650;2022-10-26T10:07:25;4.20;;;2.40;;
9667;SDS011;4872;48.316;10.650;2022-10-26T10:10:05;5.30;;;2.30;;
9667;SDS011;4872;48.316;10.650;2022-10-26T10:12:35;3.87;;;1.90;;
9667;SDS011;4872;48.316;10.650;2022-10-26T10:15:01;3.67;;;1.77;;
9667;SDS011;4872;48.316;10.650;2022-10-26T10:17:29;2.43;;;1.53;;
9667;SDS011;4872;48.316;10.650;2022-10-26T10:19:58;4.40;;;1.70;;
9667;SDS011;4872;48.316;10.650;2022-10-26T10:22:36;5.03;;;1.80;;
9667;SDS011;4872;48.316;10.650;2022-10-26T10:25:21;5.03;;;2.13;;
9667;SDS011;4872;48.316;10.650;2022-10-26T10:27:53;3.90;;;1.57;;
9667;SDS011;4872;48.316;10.650;2022-10-26T10:30:20;5.10;;;2.20;;
9667;SDS011;4872;48.316;10.650;2022-10-26T10:33:01;4.80;;;2.10;;
9667;SDS011;4872;48.316;10.650;2022-10-26T10:35:30;2.47;;;1.90;;
9667;SDS011;4872;48.316;10.650;2022-10-26T10:37:56;4.10;;;1.90;;
9667;SDS011;4872;48.316;10.650;2022-10-26T10:40:24;5.87;;;2.07;;
9667;SDS011;4872;48.316;10.650;2022-10-26T10:43:02;2.87;;;1.90;;
9667;SDS011;4872;48.316;10.650;2022-10-26T10:45:31;5.33;;;2.07;;
9667;SDS011;4872;48.316;10.650;2022-10-26T10:48:00;5.57;;;2.27;;
9667;SDS011;4872;48.316;10.650;2022-10-26T10:50:28;4.23;;;2.20;;
9667;SDS011;4872;48.316;10.650;2022-10-26T10:55:39;5.07;;;2.30;;
9667;SDS011;4872;48.316;10.650;2022-10-26T10:58:19;3.53;;;2.17;;
9667;SDS011;4872;48.316;10.650;2022-10-26T11:00:52;6.73;;;2.50;;
9667;SDS011;4872;48.316;10.650;2022-10-26T11:03:37;4.43;;;1.87;;
9667;SDS011;4872;48.316;10.650;2022-10-26T11:06:15;5.07;;;1.97;;
9667;SDS011;4872;48.316;10.650;2022-10-26T11:08:45;3.40;;;2.17;;
9667;SDS011;4872;48.316;10.650;2022-10-26T11:11:16;3.97;;;1.90;;
9667;SDS011;4872;48.316;10.650;2022-10-26T11:13:50;4.77;;;1.87;;
9667;SDS011;4872;48.316;10.650;2022-10-26T11:16:22;5.43;;;2.27;;
9667;SDS011;4872;48.316;10.650;2022-10-26T11:18:52;4.67;;;1.87;;
9667;SDS011;4872;48.316;10.650;2022-10-26T11:21:24;3.80;;;2.00;;
9667;SDS011;4872;48.316;10.650;2022-10-26T11:23:55;2.87;;;1.87;;
9667;SDS011;4872;48.316;10.650;2022-10-26T11:26:31;3.27;;;2.10;;
9667;SDS011;4872;48.316;10.650;2022-10-26T11:29:02;4.73;;;1.80;;
9667;SDS011;4872;48.316;10.650;2022-10-26T11:31:33;3.67;;;2.00;;
9667;SDS011;4872;48.316;10.650;2022-10-26T11:34:16;2.80;;;1.80;;
9667;SDS011;4872;48.316;10.650;2022-10-26T11:36:49;5.07;;;2.07;;
9667;SDS011;4872;48.316;10.650;2022-10-26T11:39:19;6.90;;;2.60;;
9667;SDS011;4872;48.316;10.650;2022-10-26T11:41:59;4.47;;;2.33;;
9667;SDS011;4872;48.316;10.650;2022-10-26T11:44:33;3.17;;;1.57;;
9667;SDS011;4872;48.316;10.650;2022-10-26T11:47:05;5.93;;;2.30;;
9667;SDS011;4872;48.316;10.650;2022-10-26T11:49:37;7.93;;;2.10;;
9667;SDS011;4872;48.316;10.650;2022-10-26T11:52:09;5.73;;;2.30;;
9667;SDS011;4872;48.316;10.650;2022-10-26T11:54:42;5.40;;;2.10;;
9667;SDS011;4872;48.316;10.650;2022-10-26T11:57:13;3.50;;;2.03;;
9667;SDS011;4872;48.316;10.650;2022-10-26T11:59:44;6.70;;;2.47;;
9667;SDS011;4872;48.316;10.650;2022-10-26T12:02:14;4.37;;;2.40;;
9667;SDS011;4872;48.316;10.650;2022-10-26T12:04:45;4.83;;;2.43;;
9667;SDS011;4872;48.316;10.650;2022-10-26T12:07:19;4.83;;;2.40;;
9667;SDS011;4872;48.316;10.650;2022-10-26T12:09:49;5.93;;;2.20;;
9667;SDS011;4872;48.316;10.650;2022-10-26T12:12:19;5.20;;;2.30;;
9667;SDS011;4872;48.316;10.650;2022-10-26T12:14:52;2.57;;;2.07;;
9667;SDS011;4872;48.316;10.650;2022-10-26T12:17:25;7.50;;;2.87;;
9667;SDS011;4872;48.316;10.650;2022-10-26T12:19:59;6.13;;;2.37;;
9667;SDS011;4872;48.316;10.650;2022-10-26T12:22:37;6.33;;;2.50;;
9667;SDS011;4872;48.316;10.650;2022-10-26T12:25:06;3.83;;;2.43;;
9667;SDS011;4872;48.316;10.650;2022-10-26T12:27:53;6.30;;;2.63;;
9667;SDS011;4872;48.316;10.650;2022-10-26T12:30:33;8.07;;;2.63;;
9667;SDS011;4872;48.316;10.650;2022-10-26T12:33:01;4.83;;;2.40;;
9667;SDS011;4872;48.316;10.650;2022-10-26T12:35:48;5.77;;;2.20;;
9667;SDS011;4872;48.316;10.650;2022-10-26T12:41:23;3.67;;;2.07;;
9667;SDS011;4872;48.316;10.650;2022-10-26T12:43:53;6.10;;;2.40;;
9667;SDS011;4872;48.316;10.650;2022-10-26T12:46:38;9.63;;;2.00;;
9667;SDS011;4872;48.316;10.650;2022-10-26T12:52:34;6.77;;;2.53;;
9667;SDS011;4872;48.316;10.650;2022-10-26T13:04:49;6.70;;;2.63;;
9667;SDS011;4872;48.316;10.650;2022-10-26T13:07:32;3.23;;;2.27;;
9667;SDS011;4872;48.316;10.650;2022-10-26T13:10:00;4.73;;;2.13;;
9667;SDS011;4872;48.316;10.650;2022-10-26T13:12:35;6.83;;;2.57;;
9667;SDS011;4872;48.316;10.650;2022-10-26T13:15:17;4.63;;;2.40;;
9667;SDS011;4872;48.316;10.650;2022-10-26T13:17:51;5.60;;;2.30;;
9667;SDS011;4872;48.316;10.650;2022-10-26T13:20:23;4.27;;;2.00;;
9667;SDS011;4872;48.316;10.650;2022-10-26T13:22:49;4.60;;;2.27;;
9667;SDS011;4872;48.316;10.650;2022-10-26T13:25:21;4.43;;;2.23;;
9667;SDS011;4872;48.316;10.650;2022-10-26T13:27:57;8.10;;;2.40;;
9667;SDS011;4872;48.316;10.650;2022-10-26T13:33:20;4.27;;;2.60;;
9667;SDS011;4872;48.316;10.650;2022-10-26T13:35:52;5.27;;;2.67;;
9667;SDS011;4872;48.316;10.650;2022-10-26T13:38:22;6.00;;;2.27;;
9667;SDS011;4872;48.316;10.650;2022-10-26T13:40:57;3.63;;;2.00;;
9667;SDS011;4872;48.316;10.650;2022-10-26T13:43:30;5.13;;;2.23;;
9667;SDS011;4872;48.316;10.650;2022-10-26T13:45:58;5.60;;;2.20;;
9667;SDS011;4872;48.316;10.650;2022-10-26T13:48:29;4.93;;;2.20;;
9667;SDS011;4872;48.316;10.650;2022-10-26T13:51:03;7.60;;;2.43;;
9667;SDS011;4872;48.316;10.650;2022-10-26T13:53:44;6.13;;;2.67;;
9667;SDS011;4872;48.316;10.650;2022-10-26T13:56:16;4.77;;;2.30;;
9667;SDS011;4872;48.316;10.650;2022-10-26T13:58:51;8.57;;;3.10;;
9667;SDS011;4872;48.316;10.650;2022-10-26T14:01:23;6.87;;;2.73;;
9667;SDS011;4872;48.316;10.650;2022-10-26T14:03:52;6.23;;;2.40;;
9667;SDS011;4872;48.316;10.650;2022-10-26T14:06:22;5.80;;;2.40;;
9667;SDS011;4872;48.316;10.650;2022-10-26T14:08:54;3.67;;;1.97;;
9667;SDS011;4872;48.316;10.650;2022-10-26T14:11:25;5.63;;;2.73;;
9667;SDS011;4872;48.316;10.650;2022-10-26T14:13:56;5.97;;;2.53;;
9667;SDS011;4872;48.316;10.650;2022-10-26T14:16:23;6.50;;;2.67;;
9667;SDS011;4872;48.316;10.650;2022-10-26T14:18:54;4.83;;;2.53;;
9667;SDS011;4872;48.316;10.650;2022-10-26T14:21:22;5.37;;;2.57;;
9667;SDS011;4872;48.316;10.650;2022-10-26T14:23:49;7.67;;;3.10;;
9667;SDS011;4872;48.316;10.650;2022-10-26T14:26:20;9.23;;;2.67;;
9667;SDS011;4872;48.316;10.650;2022-10-26T14:28:49;8.13;;;4.10;;
9667;SDS011;4872;48.316;10.650;2022-10-26T14:31:21;7.47;;;2.97;;
9667;SDS011;4872;48.316;10.650;2022-10-26T14:33:49;5.17;;;2.40;;
9667;SDS011;4872;48.316;10.650;2022-10-26T14:36:16;6.07;;;3.20;;
9667;SDS011;4872;48.316;10.650;2022-10-26T14:38:48;6.03;;;3.60;;
9667;SDS011;4872;48.316;10.650;2022-10-26T14:41:18;7.83;;;3.40;;
9667;SDS011;4872;48.316;10.650;2022-10-26T14:43:45;4.67;;;3.00;;
9667;SDS011;4872;48.316;10.650;2022-10-26T14:46:13;7.90;;;3.33;;
9667;SDS011;4872;48.316;10.650;2022-10-26T14:48:48;8.30;;;3.03;;
9667;SDS011;4872;48.316;10.650;2022-10-26T14:51:17;7.10;;;3.30;;
9667;SDS011;4872;48.316;10.650;2022-10-26T14:53:48;7.57;;;3.30;;
9667;SDS011;4872;48.316;10.650;2022-10-26T14:56:17;8.40;;;3.40;;
9667;SDS011;4872;48.316;10.650;2022-10-26T14:58:47;5.57;;;2.80;;
9667;SDS011;4872;48.316;10.650;2022-10-26T15:01:25;6.67;;;3.40;;
9667;SDS011;4872;48.316;10.650;2022-10-26T15:03:53;5.23;;;2.90;;
9667;SDS011;4872;48.316;10.650;2022-10-26T15:06:29;6.73;;;4.07;;
9667;SDS011;4872;48.316;10.650;2022-10-26T15:08:58;8.80;;;6.30;;
9667;SDS011;4872;48.316;10.650;2022-10-26T15:11:28;15.43;;;11.67;;
9667;SDS011;4872;48.316;10.650;2022-10-26T15:13:56;22.93;;;19.17;;
9667;SDS011;4872;48.316;10.650;2022-10-26T15:16:24;80.03;;;73.10;;
9667;SDS011;4872;48.316;10.650;2022-10-26T15:18:53;11.50;;;7.97;;
9667;SDS011;4872;48.316;10.650;2022-10-26T15:21:22;8.80;;;4.30;;
9667;SDS011;4872;48.316;10.650;2022-10-26T15:23:51;6.80;;;3.40;;
9667;SDS011;4872;48.316;10.650;2022-10-26T15:26:21;6.20;;;4.03;;
9667;SDS011;4872;48.316;10.650;2022-10-26T15:28:48;10.30;;;6.33;;
9667;SDS011;4872;48.316;10.650;2022-10-26T15:31:27;7.10;;;4.13;;
9667;SDS011;4872;48.316;10.650;2022-10-26T15:34:10;7.73;;;3.77;;
9667;SDS011;4872;48.316;10.650;2022-10-26T15:36:39;9.87;;;3.80;;
9667;SDS011;4872;48.316;10.650;2022-10-26T15:39:07;8.43;;;3.60;;
9667;SDS011;4872;48.316;10.650;2022-10-26T15:41:37;9.13;;;3.87;;
9667;SDS011;4872;48.316;10.650;2022-10-26T15:44:10;7.27;;;3.90;;
9667;SDS011;4872;48.316;10.650;2022-10-26T15:46:40;8.43;;;3.90;;
9667;SDS011;4872;48.316;10.650;2022-10-26T15:49:07;7.13;;;3.90;;
9667;SDS011;4872;48.316;10.650;2022-10-26T15:51:41;8.53;;;4.23;;
9667;SDS011;4872;48.316;10.650;2022-10-26T15:54:09;9.57;;;3.03;;
9667;SDS011;4872;48.316;10.650;2022-10-26T15:56:37;9.87;;;3.90;;
9667;SDS011;4872;48.316;10.650;2022-10-26T15:59:04;5.83;;;3.23;;
9667;SDS011;4872;48.316;10.650;2022-10-26T16:01:39;7.60;;;3.90;;
9667;SDS011;4872;48.316;10.650;2022-10-26T16:04:05;6.73;;;3.33;;
9667;SDS011;4872;48.316;10.650;2022-10-26T16:06:33;7.90;;;4.53;;
9667;SDS011;4872;48.316;10.650;2022-10-26T16:09:01;8.73;;;5.73;;
9667;SDS011;4872;48.316;10.650;2022-10-26T16:11:30;10.80;;;6.37;;
9667;SDS011;4872;48.316;10.650;2022-10-26T16:13:58;20.93;;;16.83;;
9667;SDS011;4872;48.316;10.650;2022-10-26T16:16:25;24.17;;;20.27;;
9667;SDS011;4872;48.316;10.650;2022-10-26T16:18:52;12.80;;;10.63;;
9667;SDS011;4872;48.316;10.650;2022-10-26T16:21:20;39.87;;;22.10;;
9667;SDS011;4872;48.316;10.650;2022-10-26T16:23:49;28.60;;;17.83;;
9667;SDS011;4872;48.316;10.650;2022-10-26T16:26:17;17.53;;;8.77;;
9667;SDS011;4872;48.316;10.650;2022-10-26T16:28:44;20.53;;;11.20;;
9667;SDS011;4872;48.316;10.650;2022-10-26T16:31:13;14.37;;;7.20;;
9667;SDS011;4872;48.316;10.650;2022-10-26T16:33:42;6.40;;;3.40;;
9667;SDS011;4872;48.316;10.650;2022-10-26T16:36:09;10.07;;;4.30;;
9667;SDS011;4872;48.316;10.650;2022-10-26T16:38:37;6.63;;;3.20;;
9667;SDS011;4872;48.316;10.650;2022-10-26T16:41:05;7.90;;;3.00;;
9667;SDS011;4872;48.316;10.650;2022-10-26T16:43:33;6.33;;;2.90;;
9667;SDS011;4872;48.316;10.650;2022-10-26T16:46:03;5.60;;;2.93;;
9667;SDS011;4872;48.316;10.650;2022-10-26T16:48:32;5.93;;;2.83;;
9667;SDS011;4872;48.316;10.650;2022-10-26T16:51:03;5.70;;;2.50;;
9667;SDS011;4872;48.316;10.650;2022-10-26T16:53:31;8.10;;;3.00;;
9667;SDS011;4872;48.316;10.650;2022-10-26T16:56:00;5.03;;;2.50;;
9667;SDS011;4872;48.316;10.650;2022-10-26T16:58:28;7.47;;;3.07;;
9667;SDS011;4872;48.316;10.650;2022-10-26T17:00:54;7.50;;;2.80;;
9667;SDS011;4872;48.316;10.650;2022-10-26T17:03:21;5.93;;;2.97;;
9667;SDS011;4872;48.316;10.650;2022-10-26T17:05:54;7.70;;;3.17;;
9667;SDS011;4872;48.316;10.650;2022-10-26T17:08:21;4.80;;;2.87;;
9667;SDS011;4872;48.316;10.650;2022-10-26T17:10:48;6.77;;;4.87;;
9667;SDS011;4872;48.316;10.650;2022-10-26T17:13:15;12.00;;;6.20;;
9667;SDS011;4872;48.316;10.650;2022-10-26T17:15:42;7.50;;;5.73;;
9667;SDS011;4872;48.316;10.650;2022-10-26T17:18:09;10.83;;;5.20;;
9667;SDS011;4872;48.316;10.650;2022-10-26T17:20:35;8.70;;;5.40;;
9667;SDS011;4872;48.316;10.650;2022-10-26T17:23:04;5.87;;;4.50;;
9667;SDS011;4872;48.316;10.650;2022-10-26T17:25:32;7.23;;;4.60;;
9667;SDS011;4872;48.316;10.650;2022-10-26T17:28:00;8.30;;;5.30;;
9667;SDS011;4872;48.316;10.650;2022-10-26T17:30:27;10.63;;;6.10;;
9667;SDS011;4872;48.316;10.650;2022-10-26T17:32:55;14.17;;;6.43;;
9667;SDS011;4872;48.316;10.650;2022-10-26T17:35:22;14.07;;;7.20;;
9667;SDS011;4872;48.316;10.650;2022-10-26T17:37:48;11.57;;;7.93;;
9667;SDS011;4872;48.316;10.650;2022-10-26T17:40:17;17.77;;;8.03;;
9667;SDS011;4872;48.316;10.650;2022-10-26T17:42:43;13.17;;;9.20;;
9667;SDS011;4872;48.316;10.650;2022-10-26T17:45:10;15.33;;;8.70;;
9667;SDS011;4872;48.316;10.650;2022-10-26T17:47:37;18.97;;;10.53;;
9667;SDS011;4872;48.316;10.650;2022-10-26T17:50:04;10.23;;;6.67;;
9667;SDS011;4872;48.316;10.650;2022-10-26T17:52:31;8.07;;;3.83;;
9667;SDS011;4872;48.316;10.650;2022-10-26T17:54:58;12.03;;;4.83;;
9667;SDS011;4872;48.316;10.650;2022-10-26T17:57:26;8.77;;;4.17;;
9667;SDS011;4872;48.316;10.650;2022-10-26T17:59:53;8.53;;;4.63;;
9667;SDS011;4872;48.316;10.650;2022-10-26T18:02:20;8.17;;;4.03;;
9667;SDS011;4872;48.316;10.650;2022-10-26T18:04:46;8.13;;;4.43;;
9667;SDS011;4872;48.316;10.650;2022-10-26T18:07:13;8.80;;;3.70;;
9667;SDS011;4872;48.316;10.650;2022-10-26T18:09:40;9.27;;;4.00;;
9667;SDS011;4872;48.316;10.650;2022-10-26T18:12:06;6.03;;;3.90;;
9667;SDS011;4872;48.316;10.650;2022-10-26T18:14:36;8.90;;;4.33;;
9667;SDS011;4872;48.316;10.650;2022-10-26T18:17:02;7.67;;;4.27;;
9667;SDS011;4872;48.316;10.650;2022-10-26T18:19:29;6.20;;;3.53;;
9667;SDS011;4872;48.316;10.650;2022-10-26T18:21:56;8.97;;;3.97;;
9667;SDS011;4872;48.316;10.650;2022-10-26T18:24:23;7.40;;;4.20;;
9667;SDS011;4872;48.316;10.650;2022-10-26T18:26:50;5.47;;;4.20;;
9667;SDS011;4872;48.316;10.650;2022-10-26T18:29:17;9.20;;;4.60;;
9667;SDS011;4872;48.316;10.650;2022-10-26T18:31:45;8.77;;;5.20;;
9667;SDS011;4872;48.316;10.650;2022-10-26T18:34:12;9.97;;;5.80;;
9667;SDS011;4872;48.316;10.650;2022-10-26T18:36:38;8.00;;;5.57;;
9667;SDS011;4872;48.316;10.650;2022-10-26T18:39:05;10.50;;;5.53;;
9667;SDS011;4872;48.316;10.650;2022-10-26T18:41:33;9.43;;;5.90;;
9667;SDS011;4872;48.316;10.650;2022-10-26T18:43:59;9.67;;;5.60;;
9667;SDS011;4872;48.316;10.650;2022-10-26T18:46:27;10.27;;;5.43;;
9667;SDS011;4872;48.316;10.650;2022-10-26T18:48:56;10.37;;;6.10;;
9667;SDS011;4872;48.316;10.650;2022-10-26T18:51:25;10.23;;;6.10;;
9667;SDS011;4872;48.316;10.650;2022-10-26T18:53:54;10.27;;;7.13;;
9667;SDS011;4872;48.316;10.650;2022-10-26T18:56:22;13.13;;;6.70;;
9667;SDS011;4872;48.316;10.650;2022-10-26T18:58:50;8.27;;;5.63;;
9667;SDS011;4872;48.316;10.650;2022-10-26T19:01:19;11.57;;;6.00;;
9667;SDS011;4872;48.316;10.650;2022-10-26T19:03:47;11.90;;;6.10;;
9667;SDS011;4872;48.316;10.650;2022-10-26T19:06:20;10.40;;;5.70;;
9667;SDS011;4872;48.316;10.650;2022-10-26T19:08:48;13.63;;;8.20;;
9667;SDS011;4872;48.316;10.650;2022-10-26T19:11:16;46.50;;;26.13;;
9667;SDS011;4872;48.316;10.650;2022-10-26T19:13:47;48.23;;;28.70;;
9667;SDS011;4872;48.316;10.650;2022-10-26T19:16:18;32.33;;;17.23;;
9667;SDS011;4872;48.316;10.650;2022-10-26T19:18:46;19.90;;;12.27;;
9667;SDS011;4872;48.316;10.650;2022-10-26T19:21:13;30.60;;;18.10;;
9667;SDS011;4872;48.316;10.650;2022-10-26T19:23:44;20.10;;;10.33;;
9667;SDS011;4872;48.316;10.650;2022-10-26T19:26:13;12.93;;;8.03;;
9667;SDS011;4872;48.316;10.650;2022-10-26T19:28:40;14.20;;;7.83;;
9667;SDS011;4872;48.316;10.650;2022-10-26T19:31:09;14.40;;;8.80;;
9667;SDS011;4872;48.316;10.650;2022-10-26T19:33:37;13.40;;;8.73;;
9667;SDS011;4872;48.316;10.650;2022-10-26T19:36:04;13.13;;;9.47;;
9667;SDS011;4872;48.316;10.650;2022-10-26T19:38:32;15.57;;;8.87;;
9667;SDS011;4872;48.316;10.650;2022-10-26T19:41:01;15.00;;;8.70;;
9667;SDS011;4872;48.316;10.650;2022-10-26T19:43:31;16.60;;;9.90;;
9667;SDS011;4872;48.316;10.650;2022-10-26T19:46:04;12.37;;;7.27;;
9667;SDS011;4872;48.316;10.650;2022-10-26T19:48:32;13.17;;;8.47;;